Forside
METAR-TAF:

METAR-TAF

Lufthavne :

Dusjanbe, Tadsjikistan

Breddekreds: 38-33N, længdekreds: 068-47E, højde: 803 m

Aktuelle vejr

Denne rapport blev lavet for 26 minutter siden, kl. 00:30 UTC
Vind 2 kt fra varierende retninger
Temperatur 22°C
Fugtighed 46%
Tryk 1006 hPa
Sigt: 9000 m

METAR: UTDD 180030Z VRB01MPS 9000 NSC 22/10 Q1006 R09/D NOSIG RMK QFE687/0916

Tid: 05:56 (00:56 UTC)

Vejrudsigter

Denne rapport blev lavet for 56 minutter siden, kl. 00:00 UTC
Foreløbig gælder fra 18 på 01 UTC til 18 på 13 UTC
Vind 4 kt fra varierende retninger
Sigt: 6000 m
Nogle få skyer i en højde af 6600 ft
Spredte skyer i en højde af 15000 ft
Midlertidig
fra 18 på 07 UTC til 18 på 13 UTC
Vind 10 kt fra vest

TAF: UTDD 180000Z 1801/1813 VRB02MPS 6000 FEW066 SCT150 TEMPO 1807/1813 27005MPS

Vejrobservationer og prognoser fra mere end 4000 lufthavne (METAR og TAF).

De gule og røde prikker repræsenterer de meteorologiske stationer.

Flyt musen over at se navnet på stationen.

Så klik over at se vejr observationer og prognoser.

At skifte det kort: Klik på de grønne knapper med et sort kors for at zoome ind; på den grønne knap med en bindestreg for at zoome ud; eller på de grønne pile for tilstødende kort.


METAR-TAF: